Time;durP1;ratioP1;P1;durP2;ratioP2;P2;SDS_P1;SDS_P2;PMS_P1;PMS_P2;Temp;Humidity;BMP_temperature;BMP_pressure;BME280_temperature;BME280_humidity;BME280_pressure;Samples;Min_cycle;Max_cycle;Signal;HPM_P1;HPM_P2
2023/12/01 00:02:10;;;;;;;14.35;8.88;;;0.50;99.90;;;;;;5038243;28;20029;-81
2023/12/01 00:04:36;;;;;;;16.08;8.90;;;0.50;99.90;;;;;;5054948;28;20108;-81
2023/12/01 00:07:02;;;;;;;15.30;9.70;;;0.50;99.90;;;;;;5056165;28;20025;-81
2023/12/01 00:09:27;;;;;;;15.05;9.30;;;0.50;99.90;;;;;;5055889;28;20029;-80
2023/12/01 00:11:53;;;;;;;15.80;9.02;;;0.50;99.90;;;;;;5054925;28;20504;-81
2023/12/01 00:14:18;;;;;;;14.68;8.10;;;0.50;99.90;;;;;;5054551;28;20029;-80
2023/12/01 00:16:44;;;;;;;12.88;8.20;;;0.50;99.90;;;;;;5054556;28;20063;-80
2023/12/01 00:19:10;;;;;;;14.23;8.98;;;0.50;99.90;;;;;;5054738;28;20032;-81
2023/12/01 00:21:35;;;;;;;13.57;8.55;;;0.50;99.90;;;;;;5037737;28;20025;-81
2023/12/01 00:24:02;;;;;;;19.35;10.02;;;0.50;99.90;;;;;;5054611;28;20113;-81
2023/12/01 00:26:27;;;;;;;16.42;9.50;;;0.50;99.90;;;;;;5054345;28;20059;-81
2023/12/01 00:28:53;;;;;;;13.52;8.77;;;0.60;99.90;;;;;;5055550;28;20117;-81
2023/12/01 00:31:19;;;;;;;15.40;8.60;;;0.60;99.90;;;;;;5055828;28;20033;-80
2023/12/01 00:33:45;;;;;;;13.27;8.10;;;0.60;99.90;;;;;;5054353;28;20021;-81
2023/12/01 00:36:10;;;;;;;15.25;8.95;;;0.50;99.90;;;;;;5054250;28;20028;-81
2023/12/01 00:38:36;;;;;;;14.48;8.98;;;0.50;99.90;;;;;;5053247;28;20029;-81
2023/12/01 00:41:02;;;;;;;14.77;9.07;;;0.50;99.90;;;;;;5054003;28;20025;-81
2023/12/01 00:43:28;;;;;;;19.92;10.13;;;0.50;99.90;;;;;;5037381;28;20500;-81
2023/12/01 00:45:53;;;;;;;18.52;10.10;;;0.60;99.90;;;;;;5046353;28;20041;-81
2023/12/01 00:48:19;;;;;;;14.90;9.68;;;0.60;99.90;;;;;;5057607;28;20029;-81
2023/12/01 00:50:45;;;;;;;17.23;10.48;;;0.60;99.90;;;;;;5074022;28;20433;-81
2023/12/01 00:53:10;;;;;;;16.65;10.15;;;0.60;99.90;;;;;;5073834;28;20388;-81
2023/12/01 00:55:36;;;;;;;17.17;10.35;;;0.60;99.90;;;;;;5073422;28;20069;-81
2023/12/01 00:58:02;;;;;;;15.43;9.57;;;0.50;99.90;;;;;;5057868;28;20101;-81
2023/12/01 01:00:28;;;;;;;17.30;8.98;;;0.50;99.90;;;;;;5074868;28;20021;-81
2023/12/01 01:02:54;;;;;;;16.08;9.15;;;0.50;99.90;;;;;;5068267;28;20068;-82
2023/12/01 01:05:20;;;;;;;19.15;11.10;;;0.50;99.90;;;;;;5040306;28;20036;-81
2023/12/01 01:07:46;;;;;;;17.23;9.45;;;0.50;99.90;;;;;;5061666;28;20029;-81
2023/12/01 01:10:12;;;;;;;16.85;10.90;;;0.50;99.90;;;;;;5036817;28;20029;-81
2023/12/01 01:12:37;;;;;;;19.17;10.57;;;0.50;99.90;;;;;;5017313;28;20061;-83
2023/12/01 01:15:04;;;;;;;17.70;10.05;;;0.50;99.90;;;;;;5035028;28;20048;-81
2023/12/01 01:17:31;;;;;;;14.95;9.93;;;0.50;99.90;;;;;;5035681;28;20056;-81
2023/12/01 01:19:58;;;;;;;16.23;9.88;;;0.50;99.90;;;;;;5036521;28;20022;-80
2023/12/01 01:22:24;;;;;;;14.63;8.95;;;0.50;99.90;;;;;;5034434;28;20038;-81
2023/12/01 01:24:50;;;;;;;19.17;11.60;;;0.50;99.90;;;;;;5044962;28;20082;-81
2023/12/01 01:27:16;;;;;;;14.98;9.73;;;0.50;99.90;;;;;;5054152;28;20482;-81
2023/12/01 01:29:43;;;;;;;21.52;11.52;;;0.50;99.90;;;;;;5051424;28;20083;-81
2023/12/01 01:32:08;;;;;;;19.30;10.02;;;0.50;99.90;;;;;;5033923;28;20052;-81
2023/12/01 01:34:34;;;;;;;19.38;9.98;;;0.50;99.90;;;;;;5017663;28;20494;-81
2023/12/01 01:37:00;;;;;;;18.08;10.35;;;0.50;99.90;;;;;;5034668;28;20033;-81
2023/12/01 01:39:26;;;;;;;19.00;10.57;;;0.50;99.90;;;;;;5016423;28;20037;-81
2023/12/01 01:41:53;;;;;;;16.45;9.70;;;0.60;99.90;;;;;;5032983;28;20025;-81
2023/12/01 01:44:18;;;;;;;15.98;10.00;;;0.50;99.90;;;;;;5016603;28;20087;-81
2023/12/01 01:46:46;;;;;;;18.95;11.20;;;0.50;99.90;;;;;;5034608;28;20069;-81
2023/12/01 01:49:12;;;;;;;17.17;9.95;;;0.50;99.90;;;;;;5032693;28;20033;-81
2023/12/01 01:51:39;;;;;;;16.42;10.00;;;0.50;99.90;;;;;;5034478;28;20026;-81
2023/12/01 01:54:05;;;;;;;17.52;9.88;;;0.50;99.90;;;;;;5032709;28;20474;-81
2023/12/01 01:56:32;;;;;;;18.33;10.20;;;0.50;99.90;;;;;;5034041;28;20068;-80
2023/12/01 01:58:58;;;;;;;16.23;10.05;;;0.60;99.90;;;;;;5034113;28;20389;-81
2023/12/01 02:01:27;;;;;;;16.17;9.70;;;0.50;99.90;;;;;;5034209;28;20470;-80
2023/12/01 02:03:53;;;;;;;18.55;9.07;;;0.60;99.90;;;;;;5049647;28;20030;-81
2023/12/01 02:06:19;;;;;;;14.13;8.90;;;0.60;99.90;;;;;;5033271;28;20478;-80
2023/12/01 02:08:45;;;;;;;14.57;8.60;;;0.60;99.90;;;;;;5017033;28;20516;-81
2023/12/01 02:11:14;;;;;;;16.15;9.55;;;0.60;99.90;;;;;;5042298;28;20037;-80
2023/12/01 02:13:40;;;;;;;16.67;8.90;;;0.60;99.90;;;;;;5033209;28;20030;-81
2023/12/01 02:16:08;;;;;;;16.60;10.45;;;0.60;99.90;;;;;;5040103;28;20101;-81
2023/12/01 02:18:34;;;;;;;16.00;10.15;;;0.60;99.90;;;;;;5041939;28;20033;-80
2023/12/01 02:21:00;;;;;;;15.18;8.60;;;0.60;99.90;;;;;;5016560;28;20159;-80
2023/12/01 02:23:29;;;;;;;13.63;8.32;;;0.60;99.90;;;;;;5032181;28;20029;-80
2023/12/01 02:25:54;;;;;;;38.05;15.27;;;0.60;99.90;;;;;;5032674;28;20033;-80
2023/12/01 02:28:20;;;;;;;34.63;15.27;;;0.60;99.90;;;;;;5015722;28;20034;-80
2023/12/01 02:30:54;;;;;;;25.60;13.23;;;0.60;99.90;;;;;;5032491;28;20033;-80
2023/12/01 02:33:20;;;;;;;20.13;11.07;;;0.60;99.90;;;;;;5032287;28;20124;-80
2023/12/01 02:35:51;;;;;;;16.90;10.05;;;0.60;99.90;;;;;;5025401;28;20098;-80
2023/12/01 02:38:17;;;;;;;14.65;8.15;;;0.60;99.90;;;;;;5039255;28;20033;-80
2023/12/01 02:40:44;;;;;;;16.20;9.68;;;0.60;99.90;;;;;;5038661;28;20029;-80
2023/12/01 02:43:13;;;;;;;15.55;9.35;;;0.60;99.90;;;;;;5051973;28;20116;-80
2023/12/01 02:45:38;;;;;;;17.77;10.00;;;0.60;99.90;;;;;;5035626;28;20036;-80
2023/12/01 02:48:05;;;;;;;17.27;9.38;;;0.60;99.90;;;;;;5053311;28;20033;-80
2023/12/01 02:50:31;;;;;;;16.95;8.95;;;0.60;99.90;;;;;;5035576;28;20497;-80
2023/12/01 02:53:01;;;;;;;15.50;9.38;;;0.60;99.90;;;;;;5053115;28;20504;-80
2023/12/01 02:55:27;;;;;;;14.23;8.73;;;0.60;99.90;;;;;;5051739;28;20392;-80
2023/12/01 02:57:54;;;;;;;17.75;9.13;;;0.60;99.90;;;;;;5053215;28;20109;-80
2023/12/01 03:00:20;;;;;;;15.23;8.30;;;0.60;99.90;;;;;;5053178;28;20017;-80
2023/12/01 03:02:46;;;;;;;12.43;7.35;;;0.60;99.90;;;;;;5055673;28;20056;-80
2023/12/01 03:05:12;;;;;;;15.40;8.20;;;0.60;99.90;;;;;;5039014;28;20025;-80
2023/12/01 03:07:39;;;;;;;16.08;9.30;;;0.60;99.90;;;;;;5055658;28;20025;-81
2023/12/01 03:10:08;;;;;;;15.23;8.73;;;0.70;99.90;;;;;;5056770;28;20385;-81
2023/12/01 03:12:34;;;;;;;13.68;8.38;;;0.60;99.90;;;;;;5056532;28;20035;-82
2023/12/01 03:15:00;;;;;;;15.25;9.60;;;0.60;99.90;;;;;;5038331;28;20033;-82
2023/12/01 03:17:26;;;;;;;15.43;9.13;;;0.60;99.90;;;;;;5055381;28;20492;-82
2023/12/01 03:19:52;;;;;;;16.05;8.80;;;0.60;99.90;;;;;;5055113;28;20025;-82
2023/12/01 03:22:19;;;;;;;13.98;8.73;;;0.60;99.90;;;;;;5056180;28;20025;-82
2023/12/01 03:24:47;;;;;;;15.23;8.20;;;0.60;99.90;;;;;;5054798;28;20036;-81
2023/12/01 03:27:14;;;;;;;13.68;7.70;;;0.60;99.90;;;;;;5038468;28;20033;-81
2023/12/01 03:29:40;;;;;;;12.75;8.18;;;0.60;99.90;;;;;;5055063;28;20515;-81
2023/12/01 03:32:06;;;;;;;13.00;7.95;;;0.60;99.90;;;;;;5054867;28;20033;-81
2023/12/01 03:34:32;;;;;;;13.88;8.15;;;0.60;99.90;;;;;;5054721;28;20032;-81
2023/12/01 03:36:57;;;;;;;13.05;8.02;;;0.60;99.90;;;;;;5054941;28;20501;-81
2023/12/01 03:39:23;;;;;;;13.98;8.48;;;0.60;99.90;;;;;;5054653;28;20495;-81
2023/12/01 03:41:49;;;;;;;14.00;8.25;;;0.60;99.90;;;;;;5038072;28;20044;-81
2023/12/01 03:44:15;;;;;;;12.52;8.05;;;0.60;99.90;;;;;;5054388;28;20036;-81
2023/12/01 03:46:42;;;;;;;12.98;8.60;;;0.60;99.90;;;;;;5054636;28;20036;-81
2023/12/01 03:49:08;;;;;;;13.40;8.70;;;0.60;99.90;;;;;;5056545;28;20100;-81
2023/12/01 03:51:35;;;;;;;14.85;9.52;;;0.70;99.90;;;;;;5054411;28;20060;-80
2023/12/01 03:54:00;;;;;;;12.65;8.25;;;0.70;99.90;;;;;;5054198;28;20025;-80
2023/12/01 03:56:26;;;;;;;16.48;9.70;;;0.70;99.90;;;;;;5037771;28;20083;-80
2023/12/01 03:58:56;;;;;;;17.92;10.07;;;0.70;99.90;;;;;;5037646;28;20029;-80
2023/12/01 04:01:31;;;;;;;15.57;9.88;;;0.70;99.90;;;;;;5054739;28;20074;-80
2023/12/01 04:03:57;;;;;;;17.70;10.10;;;0.70;99.90;;;;;;5037541;28;20035;-80
2023/12/01 04:06:22;;;;;;;15.35;9.32;;;0.70;99.90;;;;;;5054128;28;20111;-80
2023/12/01 04:08:53;;;;;;;15.25;8.85;;;0.60;99.90;;;;;;5037442;28;20037;-80
2023/12/01 04:11:19;;;;;;;15.05;8.40;;;0.70;99.90;;;;;;5054062;28;20029;-80
2023/12/01 04:13:44;;;;;;;16.63;9.65;;;0.70;99.90;;;;;;5037457;28;20486;-80
2023/12/01 04:16:10;;;;;;;13.88;9.20;;;0.70;99.90;;;;;;5066491;28;20029;-80
2023/12/01 04:18:36;;;;;;;15.73;9.02;;;0.70;99.90;;;;;;5041053;28;20063;-80
2023/12/01 04:21:08;;;;;;;15.25;9.00;;;0.70;99.90;;;;;;5073756;28;20540;-80
2023/12/01 04:23:34;;;;;;;14.82;9.07;;;0.70;99.90;;;;;;5073748;28;20028;-81
2023/12/01 04:26:00;;;;;;;18.00;9.38;;;0.70;99.90;;;;;;5074922;28;20024;-81
2023/12/01 04:28:26;;;;;;;15.90;9.43;;;0.70;99.90;;;;;;5075356;28;20024;-81
2023/12/01 04:30:52;;;;;;;12.75;7.57;;;0.60;99.90;;;;;;5075164;28;20043;-81
2023/12/01 04:33:18;;;;;;;14.05;7.80;;;0.60;99.90;;;;;;5073681;28;20082;-82
2023/12/01 04:38:58;;;;;;;14.35;8.05;;;0.70;99.90;;;;;;5074579;28;20028;-82
2023/12/01 04:41:24;;;;;;;18.02;10.73;;;0.70;99.90;;;;;;5073277;28;20021;-82
2023/12/01 04:43:51;;;;;;;18.27;10.85;;;0.70;99.90;;;;;;5073886;28;20028;-81
2023/12/01 04:46:17;;;;;;;18.60;10.85;;;0.70;99.90;;;;;;5057146;28;20103;-81
2023/12/01 04:48:45;;;;;;;20.45;10.65;;;0.70;99.90;;;;;;5056670;28;20102;-81
2023/12/01 04:51:11;;;;;;;18.55;10.65;;;0.70;99.90;;;;;;5073213;28;20035;-81
2023/12/01 04:53:37;;;;;;;15.65;9.82;;;0.70;99.90;;;;;;5073504;28;20067;-81
2023/12/01 04:56:03;;;;;;;16.15;10.23;;;0.70;99.90;;;;;;5069216;28;20053;-81
2023/12/01 04:58:29;;;;;;;16.15;9.93;;;0.70;99.90;;;;;;5036646;28;20032;-81
2023/12/01 05:00:55;;;;;;;15.43;9.40;;;0.70;99.90;;;;;;5048078;28;20083;-81
2023/12/01 05:03:20;;;;;;;17.73;10.77;;;0.70;99.90;;;;;;5034387;28;20030;-81
2023/12/01 05:05:46;;;;;;;15.52;8.73;;;0.70;99.90;;;;;;5053061;28;20086;-82
2023/12/01 05:08:12;;;;;;;18.08;10.38;;;0.70;99.90;;;;;;5036235;28;20489;-82
2023/12/01 05:10:38;;;;;;;18.23;11.05;;;0.70;99.90;;;;;;5051821;28;20435;-82
2023/12/01 05:13:06;;;;;;;16.92;9.80;;;0.70;99.90;;;;;;5052939;28;20033;-82
2023/12/01 05:15:35;;;;;;;14.95;10.07;;;0.70;99.90;;;;;;5058894;28;20366;-81
2023/12/01 05:18:02;;;;;;;15.55;9.70;;;0.70;99.90;;;;;;5053305;28;20021;-81
2023/12/01 05:20:29;;;;;;;16.67;10.15;;;0.70;99.90;;;;;;5052984;28;20033;-81
2023/12/01 05:22:59;;;;;;;15.35;9.75;;;0.70;99.90;;;;;;5053741;28;20408;-82
2023/12/01 05:25:26;;;;;;;16.27;9.57;;;0.70;99.90;;;;;;5053848;28;20116;-82
2023/12/01 05:27:54;;;;;;;12.57;9.00;;;0.70;99.90;;;;;;5052433;28;20041;-82
2023/12/01 05:30:25;;;;;;;16.95;10.23;;;0.70;99.90;;;;;;5052627;28;20025;-81
2023/12/01 05:32:52;;;;;;;15.55;10.05;;;0.70;99.90;;;;;;5053691;28;20396;-82
2023/12/01 05:35:19;;;;;;;15.60;10.50;;;0.80;99.90;;;;;;5053817;28;20029;-81
2023/12/01 05:37:53;;;;;;;17.20;10.20;;;0.70;99.90;;;;;;5052454;28;20056;-82
2023/12/01 05:40:34;;;;;;;18.55;10.40;;;0.70;99.90;;;;;;5033946;28;20026;-82
2023/12/01 05:43:00;;;;;;;23.05;11.80;;;0.70;99.90;;;;;;5032519;28;20388;-83
2023/12/01 05:45:32;;;;;;;22.20;13.05;;;0.70;99.90;;;;;;5045694;28;20044;-82
2023/12/01 05:47:59;;;;;;;22.70;11.98;;;0.70;99.90;;;;;;5033219;28;20424;-82
2023/12/01 05:50:26;;;;;;;20.83;12.45;;;0.70;99.90;;;;;;5048919;28;20044;-83
2023/12/01 05:52:54;;;;;;;21.77;12.88;;;0.70;99.90;;;;;;5048130;28;20025;-83
2023/12/01 05:55:22;;;;;;;19.95;11.88;;;0.70;99.90;;;;;;5051410;28;20025;-82
2023/12/01 05:57:54;;;;;;;20.10;11.05;;;0.70;99.90;;;;;;5052924;28;20485;-83
2023/12/01 06:00:23;;;;;;;18.75;10.32;;;0.70;99.90;;;;;;5052853;28;20031;-83
2023/12/01 06:02:50;;;;;;;19.17;11.30;;;0.80;99.90;;;;;;5047333;28;20033;-83
2023/12/01 06:05:18;;;;;;;16.70;10.35;;;0.70;99.90;;;;;;5052162;28;20060;-83
2023/12/01 06:07:49;;;;;;;15.18;9.68;;;0.70;99.90;;;;;;5053342;28;20100;-82
2023/12/01 06:10:15;;;;;;;17.83;10.45;;;0.80;99.90;;;;;;5052152;28;20029;-82
2023/12/01 06:12:41;;;;;;;16.45;10.15;;;0.70;99.90;;;;;;5035357;28;20098;-83
2023/12/01 06:15:12;;;;;;;14.02;8.95;;;0.70;99.90;;;;;;5035658;28;20481;-83
2023/12/01 06:17:39;;;;;;;15.68;9.55;;;0.80;99.90;;;;;;5052259;28;20102;-83
2023/12/01 06:20:16;;;;;;;14.07;8.77;;;0.80;99.90;;;;;;5048542;28;20032;-83
2023/12/01 06:22:48;;;;;;;13.48;8.80;;;0.70;99.90;;;;;;5017189;28;20032;-83
2023/12/01 06:25:27;;;;;;;15.40;8.73;;;0.80;99.90;;;;;;5016384;28;20083;-83
2023/12/01 06:27:57;;;;;;;13.23;8.90;;;0.80;99.90;;;;;;5053784;28;20029;-83
2023/12/01 06:30:23;;;;;;;14.45;8.00;;;0.80;99.90;;;;;;5056367;28;20096;-83
2023/12/01 06:32:50;;;;;;;13.73;8.73;;;0.80;99.90;;;;;;5053632;28;20036;-83
2023/12/01 06:35:17;;;;;;;15.95;9.75;;;0.80;99.90;;;;;;5027615;28;20036;-83
2023/12/01 06:37:44;;;;;;;16.92;9.38;;;0.80;99.90;;;;;;5036870;28;20037;-83
2023/12/01 06:40:11;;;;;;;21.65;10.48;;;0.80;99.90;;;;;;5055709;28;20070;-83
2023/12/01 06:42:44;;;;;;;22.23;12.10;;;0.80;99.90;;;;;;5056450;28;20071;-83
2023/12/01 06:45:11;;;;;;;21.25;11.75;;;0.80;99.90;;;;;;5059347;28;20484;-83
2023/12/01 06:47:40;;;;;;;18.42;11.43;;;0.80;99.90;;;;;;5071958;28;20158;-84
2023/12/01 06:50:09;;;;;;;17.52;10.23;;;0.80;99.90;;;;;;5056196;28;20028;-83
2023/12/01 06:52:34;;;;;;;18.48;11.35;;;0.80;99.90;;;;;;5056388;28;20467;-83
2023/12/01 06:55:00;;;;;;;16.92;10.48;;;0.80;99.90;;;;;;5039172;28;20029;-83
2023/12/01 06:57:26;;;;;;;16.85;9.95;;;0.80;99.90;;;;;;5039149;28;20116;-83
2023/12/01 06:59:53;;;;;;;18.13;11.57;;;0.80;99.90;;;;;;5039280;28;20060;-84
2023/12/01 07:02:19;;;;;;;17.35;11.77;;;0.80;99.90;;;;;;5030604;28;20049;-84
2023/12/01 07:04:44;;;;;;;19.35;12.32;;;0.80;99.90;;;;;;5035600;28;20042;-84
2023/12/01 07:07:12;;;;;;;19.58;13.43;;;0.80;99.90;;;;;;5018935;28;20063;-84
2023/12/01 07:09:44;;;;;;;20.40;12.80;;;0.80;99.90;;;;;;5018964;28;20033;-84
2023/12/01 07:12:10;;;;;;;18.92;13.15;;;0.80;99.90;;;;;;5019675;28;20033;-84
2023/12/01 07:14:36;;;;;;;18.67;13.27;;;0.80;99.90;;;;;;5035287;28;20079;-84
2023/12/01 07:17:05;;;;;;;19.45;12.20;;;0.80;99.90;;;;;;5072028;28;20107;-85
2023/12/01 07:19:32;;;;;;;20.15;13.52;;;0.90;99.90;;;;;;5036002;28;20026;-84
2023/12/01 07:21:59;;;;;;;21.02;13.80;;;0.90;99.90;;;;;;5035071;28;20029;-84
2023/12/01 07:24:24;;;;;;;21.48;13.18;;;0.90;99.90;;;;;;5018765;28;20397;-84
2023/12/01 07:26:51;;;;;;;21.40;12.35;;;0.90;99.90;;;;;;5018612;28;20026;-83
2023/12/01 07:29:18;;;;;;;17.75;12.75;;;1.00;99.90;;;;;;5035228;28;20083;-83
2023/12/01 07:31:44;;;;;;;19.95;12.65;;;1.00;99.90;;;;;;5035251;28;20025;-83
2023/12/01 07:34:11;;;;;;;17.55;11.50;;;1.00;99.90;;;;;;5018700;28;20370;-83
2023/12/01 07:36:39;;;;;;;18.63;10.98;;;1.00;99.90;;;;;;5018675;28;20049;-83
2023/12/01 07:39:06;;;;;;;16.75;10.07;;;1.00;99.90;;;;;;5035252;28;20041;-83
2023/12/01 07:41:34;;;;;;;15.60;9.68;;;1.00;99.90;;;;;;5035886;28;20029;-83
2023/12/01 07:44:00;;;;;;;18.13;9.45;;;1.00;99.90;;;;;;5036152;28;20100;-83
2023/12/01 07:46:25;;;;;;;16.23;9.10;;;1.00;99.90;;;;;;5056176;28;20079;-84
2023/12/01 07:48:51;;;;;;;15.25;9.23;;;1.00;99.90;;;;;;5037793;28;20033;-84
2023/12/01 07:51:17;;;;;;;13.13;8.52;;;1.00;99.90;;;;;;5054590;28;20029;-83
2023/12/01 07:53:46;;;;;;;14.10;9.60;;;1.00;99.90;;;;;;5037558;28;20064;-83
2023/12/01 07:56:20;;;;;;;18.58;9.82;;;1.00;99.90;;;;;;5054321;28;20104;-83
2023/12/01 07:58:46;;;;;;;14.30;8.93;;;1.00;99.90;;;;;;5053633;28;20032;-83
2023/12/01 08:01:14;;;;;;;13.45;9.55;;;1.00;99.90;;;;;;5037785;28;20485;-83
2023/12/01 08:03:44;;;;;;;14.32;8.43;;;0.90;99.90;;;;;;5034431;28;20028;-84
2023/12/01 08:06:09;;;;;;;16.85;10.30;;;1.00;99.90;;;;;;5035600;28;20076;-83
2023/12/01 08:08:35;;;;;;;12.10;7.95;;;1.00;99.90;;;;;;5045252;28;20040;-84
2023/12/01 08:11:04;;;;;;;11.30;6.97;;;1.00;99.90;;;;;;5037458;28;20075;-83
2023/12/01 08:13:30;;;;;;;16.63;10.85;;;1.00;99.90;;;;;;5037586;28;20059;-84
2023/12/01 08:15:55;;;;;;;15.02;10.57;;;1.00;99.90;;;;;;5053910;28;20033;-84
2023/12/01 08:18:21;;;;;;;18.65;10.70;;;1.10;99.90;;;;;;5051841;28;20410;-84
2023/12/01 08:20:47;;;;;;;21.02;13.30;;;1.10;99.90;;;;;;5036805;28;20032;-84
2023/12/01 08:23:13;;;;;;;19.25;12.43;;;1.10;99.90;;;;;;5037094;28;20029;-84
2023/12/01 08:25:39;;;;;;;20.67;13.20;;;1.10;99.90;;;;;;5053680;28;20513;-84
2023/12/01 08:28:05;;;;;;;20.20;12.85;;;1.10;99.90;;;;;;5053923;28;20040;-84
2023/12/01 08:30:30;;;;;;;32.55;18.90;;;1.10;99.90;;;;;;5030346;28;20033;-84
2023/12/01 08:32:56;;;;;;;26.30;16.77;;;1.20;99.90;;;;;;5017216;28;20030;-84
2023/12/01 08:35:22;;;;;;;23.65;15.02;;;1.20;99.90;;;;;;5017191;28;20058;-84
2023/12/01 08:37:48;;;;;;;26.80;15.23;;;1.20;99.90;;;;;;5033514;28;20037;-84
2023/12/01 08:40:13;;;;;;;26.17;15.00;;;1.20;99.90;;;;;;5034674;28;20025;-84
2023/12/01 08:42:43;;;;;;;18.67;12.50;;;1.20;99.90;;;;;;5017022;28;20059;-84
2023/12/01 08:45:10;;;;;;;20.63;13.10;;;1.30;99.90;;;;;;5020604;28;20064;-84
2023/12/01 08:47:35;;;;;;;19.88;12.63;;;1.30;99.90;;;;;;5054256;28;20032;-84
2023/12/01 08:50:01;;;;;;;21.23;12.20;;;1.30;99.90;;;;;;5055144;28;20029;-84
2023/12/01 08:52:27;;;;;;;18.48;11.60;;;1.30;99.90;;;;;;5053647;28;20513;-84
2023/12/01 08:54:53;;;;;;;17.80;12.05;;;1.30;99.90;;;;;;5036415;28;20086;-84
2023/12/01 08:57:18;;;;;;;22.27;12.00;;;1.30;99.90;;;;;;5036717;28;20040;-84
2023/12/01 08:59:44;;;;;;;20.20;12.93;;;1.30;99.90;;;;;;5036917;28;20026;-84
2023/12/01 09:02:10;;;;;;;18.15;11.32;;;1.20;99.90;;;;;;5000239;28;20037;-85
2023/12/01 09:04:36;;;;;;;17.23;11.23;;;1.30;99.90;;;;;;5035970;28;20385;-84
2023/12/01 09:07:02;;;;;;;17.70;10.80;;;1.30;99.90;;;;;;5036546;28;20075;-85
2023/12/01 09:09:27;;;;;;;16.83;11.20;;;1.30;99.90;;;;;;5055700;28;20033;-85
2023/12/01 09:11:53;;;;;;;19.45;12.90;;;1.30;99.90;;;;;;5038499;28;20021;-85
2023/12/01 09:14:19;;;;;;;22.35;13.50;;;1.40;99.90;;;;;;5052933;28;20099;-85
2023/12/01 09:16:45;;;;;;;21.05;13.13;;;1.40;99.90;;;;;;5035156;28;20117;-85
2023/12/01 09:19:11;;;;;;;23.67;14.23;;;1.40;99.90;;;;;;5034360;28;20021;-85
2023/12/01 09:21:37;;;;;;;23.27;13.98;;;1.40;99.90;;;;;;5016805;28;20025;-85
2023/12/01 09:24:03;;;;;;;26.20;14.30;;;1.40;99.90;;;;;;5032979;28;20026;-85
2023/12/01 09:26:29;;;;;;;19.73;12.82;;;1.40;99.90;;;;;;5045643;28;20116;-85
2023/12/01 09:28:54;;;;;;;20.55;13.98;;;1.40;99.90;;;;;;5052982;28;20078;-85
2023/12/01 09:31:21;;;;;;;24.95;15.15;;;1.50;99.90;;;;;;5051795;28;20105;-86
2023/12/01 09:33:47;;;;;;;21.38;15.10;;;1.50;99.90;;;;;;5027928;28;20029;-86
2023/12/01 09:36:13;;;;;;;24.25;15.52;;;1.60;99.90;;;;;;5055542;28;20032;-86
2023/12/01 09:38:38;;;;;;;21.92;14.05;;;1.60;99.90;;;;;;5036002;28;20501;-86
2023/12/01 09:41:04;;;;;;;24.33;13.70;;;1.60;99.90;;;;;;5036114;28;20028;-86
2023/12/01 09:43:31;;;;;;;20.88;12.88;;;1.60;99.90;;;;;;5035499;28;20025;-86
2023/12/01 09:45:58;;;;;;;20.00;12.15;;;1.60;99.90;;;;;;5052363;28;20037;-86
2023/12/01 09:48:24;;;;;;;18.70;11.45;;;1.50;99.90;;;;;;5052157;28;20028;-86
2023/12/01 09:50:50;;;;;;;21.35;11.98;;;1.50;99.90;;;;;;5037124;28;20033;-86
2023/12/01 09:53:19;;;;;;;17.13;10.57;;;1.50;99.90;;;;;;5052148;28;20063;-86
2023/12/01 09:55:44;;;;;;;16.88;10.88;;;1.60;99.90;;;;;;5035479;28;20040;-85
2023/12/01 09:58:10;;;;;;;14.93;10.38;;;1.60;99.90;;;;;;5035636;28;20039;-86
2023/12/01 10:00:36;;;;;;;17.00;9.93;;;1.60;99.90;;;;;;5052151;28;20021;-86
2023/12/01 10:03:02;;;;;;;19.05;12.13;;;1.70;99.90;;;;;;5035552;28;20569;-85
2023/12/01 10:05:34;;;;;;;20.83;12.68;;;1.70;99.90;;;;;;5035551;28;20029;-85
2023/12/01 10:08:00;;;;;;;18.83;11.45;;;1.70;99.90;;;;;;5036035;28;20509;-86
2023/12/01 10:10:27;;;;;;;19.33;12.02;;;1.70;99.90;;;;;;5037472;28;20448;-86
2023/12/01 10:12:56;;;;;;;19.05;11.30;;;1.80;99.90;;;;;;5056409;28;20066;-86
2023/12/01 10:15:24;;;;;;;18.50;12.13;;;1.80;99.90;;;;;;5056464;28;20033;-86
2023/12/01 10:17:54;;;;;;;21.65;13.52;;;1.90;99.90;;;;;;5072189;28;20481;-86
2023/12/01 10:20:23;;;;;;;24.63;14.25;;;1.90;99.90;;;;;;5040778;28;20028;-86
2023/12/01 10:22:49;;;;;;;27.08;15.73;;;1.90;99.90;;;;;;5056689;28;20031;-86
2023/12/01 10:25:15;;;;;;;24.95;14.70;;;2.00;99.90;;;;;;5056794;28;20033;-86
2023/12/01 10:27:41;;;;;;;23.98;14.30;;;2.00;99.90;;;;;;5040606;28;20047;-86
2023/12/01 10:30:14;;;;;;;23.70;14.65;;;2.00;99.90;;;;;;5040689;28;20060;-87
2023/12/01 10:32:41;;;;;;;23.42;14.02;;;2.00;99.90;;;;;;5057109;28;20104;-86
2023/12/01 10:35:08;;;;;;;23.38;14.13;;;2.10;99.90;;;;;;5055729;28;20021;-86
2023/12/01 10:37:37;;;;;;;21.45;13.43;;;2.00;99.90;;;;;;5058429;28;20505;-86
2023/12/01 10:40:05;;;;;;;21.92;13.27;;;2.10;99.90;;;;;;5058225;28;20393;-86
2023/12/01 10:42:34;;;;;;;19.98;12.18;;;2.10;99.90;;;;;;5056887;28;20025;-86
2023/12/01 10:45:07;;;;;;;20.83;12.25;;;2.10;99.90;;;;;;5055638;28;20025;-85
2023/12/01 10:47:34;;;;;;;22.55;13.48;;;2.20;99.90;;;;;;5035692;28;20558;-85
2023/12/01 10:50:38;;;;;;;22.30;14.30;;;2.20;99.90;;;;;;5019700;28;20099;-86
2023/12/01 10:53:06;;;;;;;22.38;13.40;;;2.30;99.90;;;;;;5050089;28;20045;-86
2023/12/01 10:55:32;;;;;;;23.48;13.93;;;2.30;99.90;;;;;;5035864;28;20087;-86
2023/12/01 11:01:04;;;;;;;22.10;13.63;;;2.30;99.90;;;;;;5054011;28;20060;-86
2023/12/01 11:03:46;;;;;;;23.27;12.70;;;2.40;99.90;;;;;;5040784;28;20116;-86
2023/12/01 11:23:54;;;;;;;23.35;13.68;;;2.60;99.90;;;;;;5053720;23;20094;-73
2023/12/01 11:26:26;;;;;;;24.45;14.95;;;2.60;99.90;;;;;;5056114;28;20025;-73
2023/12/01 11:29:04;;;;;;;25.67;16.25;;;2.60;99.90;;;;;;5056196;28;20070;-73
2023/12/01 11:31:41;;;;;;;26.98;16.48;;;2.60;99.90;;;;;;5056332;28;20021;-73
2023/12/01 11:34:13;;;;;;;25.48;15.90;;;2.60;99.90;;;;;;5054661;28;20400;-73
2023/12/01 11:36:47;;;;;;;;;;;2.70;99.90;;;;;;5056927;28;20167;-73
2023/12/01 11:39:16;;;;;;;20.60;13.60;;;2.70;99.90;;;;;;5054704;28;20007;-73
2023/12/01 11:41:42;;;;;;;21.98;13.25;;;2.70;99.90;;;;;;5056238;28;20021;-73
2023/12/01 11:44:26;;;;;;;26.50;15.52;;;2.70;99.90;;;;;;5054844;28;20439;-73
2023/12/01 11:46:57;;;;;;;33.97;18.23;;;2.70;99.90;;;;;;5055903;28;20104;-72
2023/12/01 11:49:30;;;;;;;;;;;2.60;99.90;;;;;;5056077;28;20439;-73
2023/12/01 11:52:00;;;;;;;24.98;15.70;;;2.60;99.90;;;;;;5054398;28;20374;-73
2023/12/01 11:54:26;;;;;;;26.92;15.68;;;2.60;99.90;;;;;;5054395;28;20032;-73
2023/12/01 11:56:58;;;;;;;28.10;17.63;;;2.50;99.90;;;;;;5055453;28;20033;-73
2023/12/01 11:59:26;;;;;;;;;;;2.50;99.90;;;;;;5056083;28;20029;-73
2023/12/01 12:01:56;;;;;;;26.90;16.23;;;2.50;99.90;;;;;;5056001;28;19992;-73
2023/12/01 12:04:23;;;;;;;25.73;16.30;;;2.50;99.90;;;;;;5055387;28;20027;-72
2023/12/01 12:06:49;;;;;;;24.27;15.65;;;2.40;99.90;;;;;;5055444;28;20298;-72
2023/12/01 12:09:19;;;;;;;27.08;16.77;;;2.40;99.90;;;;;;5055805;28;20028;-72
2023/12/01 12:11:47;;;;;;;29.67;17.27;;;2.40;99.90;;;;;;5054212;28;20488;-72
2023/12/01 12:14:13;;;;;;;25.85;15.38;;;2.40;99.90;;;;;;5055072;28;20033;-72
2023/12/01 12:16:40;;;;;;;26.90;16.55;;;2.40;99.90;;;;;;5052434;28;20083;-72
2023/12/01 12:19:06;;;;;;;25.17;15.50;;;2.40;99.90;;;;;;5053836;28;20052;-72
2023/12/01 12:21:33;;;;;;;22.05;14.38;;;2.40;99.90;;;;;;5053820;28;20025;-72
2023/12/01 12:23:59;;;;;;;27.75;15.48;;;2.40;99.90;;;;;;5054907;28;20082;-72
2023/12/01 12:26:27;;;;;;;24.23;14.25;;;2.30;99.90;;;;;;5055279;28;20534;-72
2023/12/01 12:28:58;;;;;;;26.00;15.57;;;2.30;99.90;;;;;;5055098;28;20028;-72
2023/12/01 12:31:26;;;;;;;25.30;15.30;;;2.30;99.90;;;;;;5055268;28;20043;-72
2023/12/01 12:33:58;;;;;;;22.60;15.13;;;2.30;99.90;;;;;;5054792;28;20104;-72
2023/12/01 12:36:29;;;;;;;25.38;14.70;;;2.30;99.90;;;;;;5054738;28;20033;-72
2023/12/01 12:38:59;;;;;;;22.90;14.32;;;2.30;99.90;;;;;;5054844;28;20033;-71
2023/12/01 12:41:35;;;;;;;23.70;15.20;;;2.30;99.90;;;;;;5054723;28;20590;-72
2023/12/01 12:44:03;;;;;;;26.02;15.77;;;2.30;99.90;;;;;;5054656;28;20047;-72
2023/12/01 12:46:29;;;;;;;26.13;16.35;;;2.30;99.90;;;;;;5053533;28;20514;-72
2023/12/01 12:49:03;;;;;;;26.88;16.13;;;2.30;99.90;;;;;;5054625;28;20043;-71
2023/12/01 12:51:30;;;;;;;26.77;16.63;;;2.30;99.90;;;;;;5054526;28;20029;-71
2023/12/01 12:53:57;;;;;;;24.30;15.68;;;2.30;99.90;;;;;;5054961;28;20021;-72
2023/12/01 12:56:23;;;;;;;24.45;15.18;;;2.40;99.90;;;;;;5053167;28;20108;-72
2023/12/01 12:58:54;;;;;;;26.00;15.48;;;2.40;99.90;;;;;;5054395;28;20033;-71
2023/12/01 13:01:20;;;;;;;27.25;15.48;;;2.30;99.90;;;;;;5054647;28;20104;-72
2023/12/01 13:03:47;;;;;;;26.20;16.05;;;2.30;99.90;;;;;;5052959;28;20036;-72
2023/12/01 13:06:13;;;;;;;22.42;14.65;;;2.30;99.90;;;;;;5054268;28;20051;-72